sensor_id;sensor_type;location;lat;lon;timestamp;P1;durP1;ratioP1;P2;durP2;ratioP2
11267;SDS011;49397;47.474;9.416;2023-01-01T00:01:11;32.47;;;23.30;;
11267;SDS011;49397;47.474;9.416;2023-01-01T00:03:39;29.43;;;20.17;;
11267;SDS011;49397;47.474;9.416;2023-01-01T00:06:08;32.40;;;22.40;;
11267;SDS011;49397;47.474;9.416;2023-01-01T00:08:37;29.77;;;23.10;;
11267;SDS011;49397;47.474;9.416;2023-01-01T00:11:04;40.07;;;24.53;;
11267;SDS011;49397;47.474;9.416;2023-01-01T00:13:31;34.53;;;22.00;;
11267;SDS011;49397;47.474;9.416;2023-01-01T00:16:12;49.97;;;27.50;;
11267;SDS011;49397;47.474;9.416;2023-01-01T00:18:38;46.53;;;29.87;;
11267;SDS011;49397;47.474;9.416;2023-01-01T00:21:05;44.90;;;29.20;;
11267;SDS011;49397;47.474;9.416;2023-01-01T00:23:36;44.77;;;27.90;;
11267;SDS011;49397;47.474;9.416;2023-01-01T00:26:09;44.90;;;27.97;;
11267;SDS011;49397;47.474;9.416;2023-01-01T00:28:35;29.67;;;19.97;;
11267;SDS011;49397;47.474;9.416;2023-01-01T00:31:05;25.27;;;17.80;;
11267;SDS011;49397;47.474;9.416;2023-01-01T00:33:32;27.67;;;18.97;;
11267;SDS011;49397;47.474;9.416;2023-01-01T00:36:04;40.07;;;25.80;;
11267;SDS011;49397;47.474;9.416;2023-01-01T00:38:31;38.93;;;26.03;;
11267;SDS011;49397;47.474;9.416;2023-01-01T00:40:57;51.47;;;34.40;;
11267;SDS011;49397;47.474;9.416;2023-01-01T00:43:23;80.90;;;44.53;;
11267;SDS011;49397;47.474;9.416;2023-01-01T00:45:48;50.07;;;30.63;;
11267;SDS011;49397;47.474;9.416;2023-01-01T00:48:16;39.30;;;23.07;;
11267;SDS011;49397;47.474;9.416;2023-01-01T00:50:44;50.43;;;28.97;;
11267;SDS011;49397;47.474;9.416;2023-01-01T00:53:09;53.60;;;29.80;;
11267;SDS011;49397;47.474;9.416;2023-01-01T00:55:35;47.97;;;28.70;;
11267;SDS011;49397;47.474;9.416;2023-01-01T00:58:00;63.30;;;35.57;;
11267;SDS011;49397;47.474;9.416;2023-01-01T01:00:26;52.90;;;35.07;;
11267;SDS011;49397;47.474;9.416;2023-01-01T01:02:51;49.93;;;33.27;;
11267;SDS011;49397;47.474;9.416;2023-01-01T01:05:17;61.93;;;34.43;;
11267;SDS011;49397;47.474;9.416;2023-01-01T01:07:42;63.93;;;37.80;;
11267;SDS011;49397;47.474;9.416;2023-01-01T01:10:08;43.10;;;27.30;;
11267;SDS011;49397;47.474;9.416;2023-01-01T01:12:34;46.07;;;29.20;;
11267;SDS011;49397;47.474;9.416;2023-01-01T01:15:00;44.30;;;25.93;;
11267;SDS011;49397;47.474;9.416;2023-01-01T01:17:26;29.67;;;19.60;;
11267;SDS011;49397;47.474;9.416;2023-01-01T01:19:53;34.63;;;20.87;;
11267;SDS011;49397;47.474;9.416;2023-01-01T01:22:19;32.27;;;19.60;;
11267;SDS011;49397;47.474;9.416;2023-01-01T01:24:44;18.93;;;13.40;;
11267;SDS011;49397;47.474;9.416;2023-01-01T01:27:10;25.10;;;15.23;;
11267;SDS011;49397;47.474;9.416;2023-01-01T01:29:35;31.00;;;19.87;;
11267;SDS011;49397;47.474;9.416;2023-01-01T01:32:01;30.63;;;19.50;;
11267;SDS011;49397;47.474;9.416;2023-01-01T01:34:27;24.53;;;14.93;;
11267;SDS011;49397;47.474;9.416;2023-01-01T01:36:53;17.53;;;12.70;;
11267;SDS011;49397;47.474;9.416;2023-01-01T01:39:19;10.97;;;7.50;;
11267;SDS011;49397;47.474;9.416;2023-01-01T01:41:44;6.77;;;5.30;;
11267;SDS011;49397;47.474;9.416;2023-01-01T01:47:53;13.53;;;9.60;;
11267;SDS011;49397;47.474;9.416;2023-01-01T01:53:11;19.97;;;12.23;;
11267;SDS011;49397;47.474;9.416;2023-01-01T01:55:47;20.13;;;13.90;;
11267;SDS011;49397;47.474;9.416;2023-01-01T01:58:16;21.90;;;14.40;;
11267;SDS011;49397;47.474;9.416;2023-01-01T02:00:42;21.73;;;13.60;;
11267;SDS011;49397;47.474;9.416;2023-01-01T02:03:09;19.93;;;13.70;;
11267;SDS011;49397;47.474;9.416;2023-01-01T02:05:38;21.37;;;14.57;;
11267;SDS011;49397;47.474;9.416;2023-01-01T02:08:05;20.07;;;13.93;;
11267;SDS011;49397;47.474;9.416;2023-01-01T02:10:32;20.77;;;14.10;;
11267;SDS011;49397;47.474;9.416;2023-01-01T02:12:58;16.93;;;11.27;;
11267;SDS011;49397;47.474;9.416;2023-01-01T02:15:27;17.17;;;11.67;;
11267;SDS011;49397;47.474;9.416;2023-01-01T02:29:09;20.27;;;13.37;;
11267;SDS011;49397;47.474;9.416;2023-01-01T02:34:34;14.87;;;10.07;;
11267;SDS011;49397;47.474;9.416;2023-01-01T02:37:04;19.57;;;12.63;;
11267;SDS011;49397;47.474;9.416;2023-01-01T02:39:34;11.87;;;8.20;;
11267;SDS011;49397;47.474;9.416;2023-01-01T02:42:04;13.20;;;8.80;;
11267;SDS011;49397;47.474;9.416;2023-01-01T02:44:33;11.50;;;8.27;;
11267;SDS011;49397;47.474;9.416;2023-01-01T02:47:12;13.00;;;8.63;;
11267;SDS011;49397;47.474;9.416;2023-01-01T02:50:03;10.10;;;7.20;;
11267;SDS011;49397;47.474;9.416;2023-01-01T02:58:23;13.87;;;8.53;;
11267;SDS011;49397;47.474;9.416;2023-01-01T03:07:01;7.80;;;7.03;;
11267;SDS011;49397;47.474;9.416;2023-01-01T03:09:41;17.73;;;10.13;;
11267;SDS011;49397;47.474;9.416;2023-01-01T03:12:29;9.80;;;7.17;;
11267;SDS011;49397;47.474;9.416;2023-01-01T03:20:30;12.83;;;8.67;;
11267;SDS011;49397;47.474;9.416;2023-01-01T03:23:01;13.43;;;7.70;;
11267;SDS011;49397;47.474;9.416;2023-01-01T03:25:31;11.37;;;6.93;;
11267;SDS011;49397;47.474;9.416;2023-01-01T03:28:05;9.60;;;6.90;;
11267;SDS011;49397;47.474;9.416;2023-01-01T03:30:35;9.37;;;6.00;;
11267;SDS011;49397;47.474;9.416;2023-01-01T03:33:05;7.27;;;5.87;;
11267;SDS011;49397;47.474;9.416;2023-01-01T03:35:41;7.17;;;5.67;;
11267;SDS011;49397;47.474;9.416;2023-01-01T03:38:25;7.93;;;5.63;;
11267;SDS011;49397;47.474;9.416;2023-01-01T03:40:59;5.60;;;3.60;;
11267;SDS011;49397;47.474;9.416;2023-01-01T03:43:50;6.13;;;3.77;;
11267;SDS011;49397;47.474;9.416;2023-01-01T03:46:37;5.70;;;4.07;;
11267;SDS011;49397;47.474;9.416;2023-01-01T03:49:04;4.23;;;3.83;;
11267;SDS011;49397;47.474;9.416;2023-01-01T04:00:02;10.17;;;5.63;;
11267;SDS011;49397;47.474;9.416;2023-01-01T04:02:43;8.43;;;4.47;;
11267;SDS011;49397;47.474;9.416;2023-01-01T04:05:11;4.80;;;4.30;;
11267;SDS011;49397;47.474;9.416;2023-01-01T04:07:37;6.27;;;4.37;;
11267;SDS011;49397;47.474;9.416;2023-01-01T04:10:04;6.10;;;4.90;;
11267;SDS011;49397;47.474;9.416;2023-01-01T04:12:51;6.30;;;4.57;;
11267;SDS011;49397;47.474;9.416;2023-01-01T04:15:21;5.67;;;4.50;;
11267;SDS011;49397;47.474;9.416;2023-01-01T04:17:49;4.07;;;3.67;;
11267;SDS011;49397;47.474;9.416;2023-01-01T04:20:15;8.43;;;4.50;;
11267;SDS011;49397;47.474;9.416;2023-01-01T04:22:41;5.07;;;4.07;;
11267;SDS011;49397;47.474;9.416;2023-01-01T04:25:07;5.87;;;3.97;;
11267;SDS011;49397;47.474;9.416;2023-01-01T04:27:34;4.33;;;3.77;;
11267;SDS011;49397;47.474;9.416;2023-01-01T04:29:59;4.13;;;3.47;;
11267;SDS011;49397;47.474;9.416;2023-01-01T04:32:25;4.00;;;3.60;;
11267;SDS011;49397;47.474;9.416;2023-01-01T04:34:50;3.13;;;2.93;;
11267;SDS011;49397;47.474;9.416;2023-01-01T04:37:16;3.70;;;3.40;;
11267;SDS011;49397;47.474;9.416;2023-01-01T04:39:41;3.60;;;3.13;;
11267;SDS011;49397;47.474;9.416;2023-01-01T04:42:07;5.53;;;3.97;;
11267;SDS011;49397;47.474;9.416;2023-01-01T04:44:33;4.70;;;3.47;;
11267;SDS011;49397;47.474;9.416;2023-01-01T04:46:58;3.17;;;2.97;;
11267;SDS011;49397;47.474;9.416;2023-01-01T04:49:23;3.50;;;2.73;;
11267;SDS011;49397;47.474;9.416;2023-01-01T04:51:49;6.33;;;4.20;;
11267;SDS011;49397;47.474;9.416;2023-01-01T04:54:14;4.10;;;3.80;;
11267;SDS011;49397;47.474;9.416;2023-01-01T04:56:40;4.20;;;3.37;;
11267;SDS011;49397;47.474;9.416;2023-01-01T04:59:05;3.80;;;2.97;;
11267;SDS011;49397;47.474;9.416;2023-01-01T05:01:31;3.60;;;3.10;;
11267;SDS011;49397;47.474;9.416;2023-01-01T05:03:57;2.70;;;2.50;;
11267;SDS011;49397;47.474;9.416;2023-01-01T05:06:23;3.00;;;2.70;;
11267;SDS011;49397;47.474;9.416;2023-01-01T05:08:50;3.57;;;2.50;;
11267;SDS011;49397;47.474;9.416;2023-01-01T05:11:20;2.73;;;2.53;;
11267;SDS011;49397;47.474;9.416;2023-01-01T05:13:47;2.63;;;2.43;;
11267;SDS011;49397;47.474;9.416;2023-01-01T05:16:15;2.97;;;2.43;;
11267;SDS011;49397;47.474;9.416;2023-01-01T05:18:42;3.20;;;3.00;;
11267;SDS011;49397;47.474;9.416;2023-01-01T05:21:13;2.50;;;2.40;;
11267;SDS011;49397;47.474;9.416;2023-01-01T05:23:40;3.00;;;2.70;;
11267;SDS011;49397;47.474;9.416;2023-01-01T05:26:13;3.47;;;2.60;;
11267;SDS011;49397;47.474;9.416;2023-01-01T05:28:41;2.70;;;2.50;;
11267;SDS011;49397;47.474;9.416;2023-01-01T05:31:07;4.70;;;2.40;;
11267;SDS011;49397;47.474;9.416;2023-01-01T05:33:35;3.00;;;2.60;;
11267;SDS011;49397;47.474;9.416;2023-01-01T05:36:02;3.17;;;2.90;;
11267;SDS011;49397;47.474;9.416;2023-01-01T05:38:29;2.63;;;2.47;;
11267;SDS011;49397;47.474;9.416;2023-01-01T05:40:54;2.33;;;2.20;;
11267;SDS011;49397;47.474;9.416;2023-01-01T05:43:20;2.43;;;2.23;;
11267;SDS011;49397;47.474;9.416;2023-01-01T05:45:46;2.47;;;2.27;;
11267;SDS011;49397;47.474;9.416;2023-01-01T05:48:12;2.80;;;2.60;;
11267;SDS011;49397;47.474;9.416;2023-01-01T05:50:37;2.50;;;2.40;;
11267;SDS011;49397;47.474;9.416;2023-01-01T05:53:03;3.17;;;2.87;;
11267;SDS011;49397;47.474;9.416;2023-01-01T05:55:29;2.67;;;2.47;;
11267;SDS011;49397;47.474;9.416;2023-01-01T05:57:55;2.90;;;2.70;;
11267;SDS011;49397;47.474;9.416;2023-01-01T06:00:21;3.37;;;3.07;;
11267;SDS011;49397;47.474;9.416;2023-01-01T06:02:47;3.33;;;3.00;;
11267;SDS011;49397;47.474;9.416;2023-01-01T06:05:14;2.77;;;2.57;;
11267;SDS011;49397;47.474;9.416;2023-01-01T06:07:39;2.80;;;2.60;;
11267;SDS011;49397;47.474;9.416;2023-01-01T06:10:05;3.10;;;2.90;;
11267;SDS011;49397;47.474;9.416;2023-01-01T06:12:31;3.10;;;2.90;;
11267;SDS011;49397;47.474;9.416;2023-01-01T06:14:56;3.13;;;2.93;;
11267;SDS011;49397;47.474;9.416;2023-01-01T06:17:21;3.10;;;2.90;;
11267;SDS011;49397;47.474;9.416;2023-01-01T06:19:47;3.37;;;3.13;;
11267;SDS011;49397;47.474;9.416;2023-01-01T06:22:13;3.53;;;2.57;;
11267;SDS011;49397;47.474;9.416;2023-01-01T06:24:38;3.10;;;2.90;;
11267;SDS011;49397;47.474;9.416;2023-01-01T06:27:03;3.17;;;2.80;;
11267;SDS011;49397;47.474;9.416;2023-01-01T06:29:29;3.10;;;2.90;;
11267;SDS011;49397;47.474;9.416;2023-01-01T06:31:54;2.77;;;2.57;;
11267;SDS011;49397;47.474;9.416;2023-01-01T06:34:20;2.87;;;2.67;;
11267;SDS011;49397;47.474;9.416;2023-01-01T06:36:45;5.03;;;2.43;;
11267;SDS011;49397;47.474;9.416;2023-01-01T06:39:11;3.07;;;2.50;;
11267;SDS011;49397;47.474;9.416;2023-01-01T06:41:36;2.97;;;2.70;;
11267;SDS011;49397;47.474;9.416;2023-01-01T06:44:02;3.10;;;2.90;;
11267;SDS011;49397;47.474;9.416;2023-01-01T06:46:31;3.00;;;2.80;;
11267;SDS011;49397;47.474;9.416;2023-01-01T06:49:00;2.77;;;2.57;;
11267;SDS011;49397;47.474;9.416;2023-01-01T06:51:28;2.87;;;2.67;;
11267;SDS011;49397;47.474;9.416;2023-01-01T06:53:59;3.03;;;2.80;;
11267;SDS011;49397;47.474;9.416;2023-01-01T06:56:26;6.70;;;3.07;;
11267;SDS011;49397;47.474;9.416;2023-01-01T06:58:53;2.93;;;2.73;;
11267;SDS011;49397;47.474;9.416;2023-01-01T07:01:20;3.13;;;2.87;;
11267;SDS011;49397;47.474;9.416;2023-01-01T07:03:51;3.00;;;2.80;;
11267;SDS011;49397;47.474;9.416;2023-01-01T07:06:18;3.50;;;3.20;;
11267;SDS011;49397;47.474;9.416;2023-01-01T07:08:44;2.70;;;2.50;;
11267;SDS011;49397;47.474;9.416;2023-01-01T07:11:09;3.47;;;2.77;;
11267;SDS011;49397;47.474;9.416;2023-01-01T07:13:35;4.00;;;3.70;;
11267;SDS011;49397;47.474;9.416;2023-01-01T07:16:00;4.87;;;4.47;;
11267;SDS011;49397;47.474;9.416;2023-01-01T07:18:26;4.40;;;4.00;;
11267;SDS011;49397;47.474;9.416;2023-01-01T07:20:59;3.57;;;3.37;;
11267;SDS011;49397;47.474;9.416;2023-01-01T07:23:26;6.00;;;3.40;;
11267;SDS011;49397;47.474;9.416;2023-01-01T07:25:53;3.57;;;3.27;;
11267;SDS011;49397;47.474;9.416;2023-01-01T07:28:19;3.07;;;2.87;;
11267;SDS011;49397;47.474;9.416;2023-01-01T07:30:46;2.73;;;2.53;;
11267;SDS011;49397;47.474;9.416;2023-01-01T07:33:16;2.60;;;2.40;;
11267;SDS011;49397;47.474;9.416;2023-01-01T07:35:43;2.87;;;2.77;;
11267;SDS011;49397;47.474;9.416;2023-01-01T07:38:09;3.00;;;2.70;;
11267;SDS011;49397;47.474;9.416;2023-01-01T07:40:35;3.40;;;2.90;;
11267;SDS011;49397;47.474;9.416;2023-01-01T07:43:01;2.90;;;2.57;;
11267;SDS011;49397;47.474;9.416;2023-01-01T07:45:27;2.80;;;2.60;;
11267;SDS011;49397;47.474;9.416;2023-01-01T07:47:53;2.30;;;2.20;;
11267;SDS011;49397;47.474;9.416;2023-01-01T07:50:20;4.10;;;2.30;;
11267;SDS011;49397;47.474;9.416;2023-01-01T07:52:47;3.00;;;2.80;;
11267;SDS011;49397;47.474;9.416;2023-01-01T07:55:13;4.07;;;3.27;;
11267;SDS011;49397;47.474;9.416;2023-01-01T07:57:40;2.83;;;2.63;;
11267;SDS011;49397;47.474;9.416;2023-01-01T08:00:07;3.10;;;2.50;;
11267;SDS011;49397;47.474;9.416;2023-01-01T08:02:34;2.43;;;2.23;;
11267;SDS011;49397;47.474;9.416;2023-01-01T08:05:00;3.00;;;2.67;;
11267;SDS011;49397;47.474;9.416;2023-01-01T08:07:25;2.83;;;2.63;;
11267;SDS011;49397;47.474;9.416;2023-01-01T08:09:51;2.80;;;2.60;;
11267;SDS011;49397;47.474;9.416;2023-01-01T08:12:16;3.00;;;2.80;;
11267;SDS011;49397;47.474;9.416;2023-01-01T08:14:41;2.60;;;2.40;;
11267;SDS011;49397;47.474;9.416;2023-01-01T08:17:07;2.40;;;2.23;;
11267;SDS011;49397;47.474;9.416;2023-01-01T08:19:32;3.10;;;2.90;;
11267;SDS011;49397;47.474;9.416;2023-01-01T08:21:58;2.67;;;2.47;;
11267;SDS011;49397;47.474;9.416;2023-01-01T08:24:23;2.40;;;2.30;;
11267;SDS011;49397;47.474;9.416;2023-01-01T08:26:49;3.30;;;2.80;;
11267;SDS011;49397;47.474;9.416;2023-01-01T08:29:15;2.63;;;2.43;;
11267;SDS011;49397;47.474;9.416;2023-01-01T08:31:41;3.87;;;2.53;;
11267;SDS011;49397;47.474;9.416;2023-01-01T08:34:06;2.80;;;2.60;;
11267;SDS011;49397;47.474;9.416;2023-01-01T08:36:32;2.07;;;1.97;;
11267;SDS011;49397;47.474;9.416;2023-01-01T08:38:58;2.33;;;2.13;;
11267;SDS011;49397;47.474;9.416;2023-01-01T08:41:23;2.80;;;2.50;;
11267;SDS011;49397;47.474;9.416;2023-01-01T08:43:49;4.00;;;2.50;;
11267;SDS011;49397;47.474;9.416;2023-01-01T08:46:15;2.80;;;2.60;;
11267;SDS011;49397;47.474;9.416;2023-01-01T08:48:40;2.97;;;2.77;;
11267;SDS011;49397;47.474;9.416;2023-01-01T08:51:06;2.70;;;2.50;;
11267;SDS011;49397;47.474;9.416;2023-01-01T08:53:31;2.70;;;2.50;;
11267;SDS011;49397;47.474;9.416;2023-01-01T08:55:58;2.77;;;2.30;;
11267;SDS011;49397;47.474;9.416;2023-01-01T08:58:25;2.40;;;2.27;;
11267;SDS011;49397;47.474;9.416;2023-01-01T09:00:51;2.73;;;2.53;;
11267;SDS011;49397;47.474;9.416;2023-01-01T09:03:18;2.87;;;2.67;;
11267;SDS011;49397;47.474;9.416;2023-01-01T09:05:43;3.37;;;2.33;;
11267;SDS011;49397;47.474;9.416;2023-01-01T09:08:13;2.57;;;2.47;;
11267;SDS011;49397;47.474;9.416;2023-01-01T09:10:39;3.67;;;2.60;;
11267;SDS011;49397;47.474;9.416;2023-01-01T09:13:07;3.13;;;2.90;;
11267;SDS011;49397;47.474;9.416;2023-01-01T09:15:37;3.07;;;2.83;;
11267;SDS011;49397;47.474;9.416;2023-01-01T09:18:03;16.03;;;11.10;;
11267;SDS011;49397;47.474;9.416;2023-01-01T09:20:28;14.97;;;8.20;;
11267;SDS011;49397;47.474;9.416;2023-01-01T09:22:54;11.63;;;7.60;;
11267;SDS011;49397;47.474;9.416;2023-01-01T09:25:20;8.03;;;4.67;;
11267;SDS011;49397;47.474;9.416;2023-01-01T09:27:45;10.17;;;7.10;;
11267;SDS011;49397;47.474;9.416;2023-01-01T09:30:11;6.10;;;4.23;;
11267;SDS011;49397;47.474;9.416;2023-01-01T09:32:37;5.03;;;4.53;;
11267;SDS011;49397;47.474;9.416;2023-01-01T09:35:02;5.57;;;4.23;;
11267;SDS011;49397;47.474;9.416;2023-01-01T09:37:29;4.23;;;3.83;;
11267;SDS011;49397;47.474;9.416;2023-01-01T09:39:55;3.87;;;3.53;;
11267;SDS011;49397;47.474;9.416;2023-01-01T09:47:47;3.27;;;2.90;;
11267;SDS011;49397;47.474;9.416;2023-01-01T09:50:22;2.47;;;2.27;;
11267;SDS011;49397;47.474;9.416;2023-01-01T09:52:59;2.60;;;2.30;;
11267;SDS011;49397;47.474;9.416;2023-01-01T09:55:28;3.13;;;2.83;;
11267;SDS011;49397;47.474;9.416;2023-01-01T09:58:09;149.10;;;101.00;;
11267;SDS011;49397;47.474;9.416;2023-01-01T10:00:36;176.53;;;121.67;;
11267;SDS011;49397;47.474;9.416;2023-01-01T10:08:38;2.40;;;2.20;;
11267;SDS011;49397;47.474;9.416;2023-01-01T10:11:30;2.03;;;1.83;;
11267;SDS011;49397;47.474;9.416;2023-01-01T10:16:48;2.40;;;2.20;;
11267;SDS011;49397;47.474;9.416;2023-01-01T10:21:46;3.37;;;2.30;;
11267;SDS011;49397;47.474;9.416;2023-01-01T10:26:55;2.60;;;2.40;;
11267;SDS011;49397;47.474;9.416;2023-01-01T10:29:25;2.50;;;2.30;;
11267;SDS011;49397;47.474;9.416;2023-01-01T10:32:14;2.40;;;2.20;;
11267;SDS011;49397;47.474;9.416;2023-01-01T10:34:43;2.43;;;2.33;;
11267;SDS011;49397;47.474;9.416;2023-01-01T10:37:08;2.43;;;2.17;;
11267;SDS011;49397;47.474;9.416;2023-01-01T10:39:34;2.67;;;2.10;;
11267;SDS011;49397;47.474;9.416;2023-01-01T10:42:01;2.70;;;2.50;;
11267;SDS011;49397;47.474;9.416;2023-01-01T10:44:28;1.90;;;1.80;;
11267;SDS011;49397;47.474;9.416;2023-01-01T10:46:56;2.63;;;2.43;;
11267;SDS011;49397;47.474;9.416;2023-01-01T10:49:23;6.67;;;2.20;;
11267;SDS011;49397;47.474;9.416;2023-01-01T10:51:49;2.10;;;2.00;;
11267;SDS011;49397;47.474;9.416;2023-01-01T10:54:23;2.57;;;1.97;;
11267;SDS011;49397;47.474;9.416;2023-01-01T10:57:16;2.03;;;1.93;;
11267;SDS011;49397;47.474;9.416;2023-01-01T10:59:46;2.33;;;2.13;;
11267;SDS011;49397;47.474;9.416;2023-01-01T11:02:16;2.07;;;1.97;;
11267;SDS011;49397;47.474;9.416;2023-01-01T11:04:42;1.90;;;1.80;;
11267;SDS011;49397;47.474;9.416;2023-01-01T11:07:10;2.33;;;2.13;;
11267;SDS011;49397;47.474;9.416;2023-01-01T11:10:00;2.27;;;2.07;;
11267;SDS011;49397;47.474;9.416;2023-01-01T11:12:30;2.20;;;2.10;;
11267;SDS011;49397;47.474;9.416;2023-01-01T11:14:59;2.70;;;2.10;;
11267;SDS011;49397;47.474;9.416;2023-01-01T11:17:25;3.77;;;2.10;;
11267;SDS011;49397;47.474;9.416;2023-01-01T11:19:53;1.80;;;1.70;;
11267;SDS011;49397;47.474;9.416;2023-01-01T11:22:39;2.33;;;2.13;;
11267;SDS011;49397;47.474;9.416;2023-01-01T11:25:20;2.30;;;2.20;;
11267;SDS011;49397;47.474;9.416;2023-01-01T11:27:47;3.03;;;2.30;;
11267;SDS011;49397;47.474;9.416;2023-01-01T11:32:45;1.70;;;1.60;;
11267;SDS011;49397;47.474;9.416;2023-01-01T11:35:31;2.10;;;2.00;;
11267;SDS011;49397;47.474;9.416;2023-01-01T11:38:14;2.30;;;2.10;;
11267;SDS011;49397;47.474;9.416;2023-01-01T11:40:46;1.93;;;1.80;;
11267;SDS011;49397;47.474;9.416;2023-01-01T11:43:23;2.00;;;1.90;;
11267;SDS011;49397;47.474;9.416;2023-01-01T11:45:52;1.70;;;1.60;;
11267;SDS011;49397;47.474;9.416;2023-01-01T11:50:53;2.70;;;2.20;;
11267;SDS011;49397;47.474;9.416;2023-01-01T12:00:55;2.00;;;1.90;;
11267;SDS011;49397;47.474;9.416;2023-01-01T12:03:27;1.83;;;1.83;;
11267;SDS011;49397;47.474;9.416;2023-01-01T12:08:33;2.10;;;2.00;;
11267;SDS011;49397;47.474;9.416;2023-01-01T12:11:23;1.93;;;1.83;;
11267;SDS011;49397;47.474;9.416;2023-01-01T12:14:14;1.80;;;1.70;;
11267;SDS011;49397;47.474;9.416;2023-01-01T12:17:03;3.50;;;3.20;;
11267;SDS011;49397;47.474;9.416;2023-01-01T12:19:37;10.57;;;7.20;;
11267;SDS011;49397;47.474;9.416;2023-01-01T12:22:13;8.23;;;6.60;;
11267;SDS011;49397;47.474;9.416;2023-01-01T12:24:41;8.17;;;5.63;;
11267;SDS011;49397;47.474;9.416;2023-01-01T12:29:58;5.33;;;4.20;;
11267;SDS011;49397;47.474;9.416;2023-01-01T12:43:32;3.97;;;3.43;;
11267;SDS011;49397;47.474;9.416;2023-01-01T12:46:10;4.27;;;3.40;;
11267;SDS011;49397;47.474;9.416;2023-01-01T12:51:26;3.63;;;3.33;;
11267;SDS011;49397;47.474;9.416;2023-01-01T12:54:43;3.90;;;3.50;;
11267;SDS011;49397;47.474;9.416;2023-01-01T12:56:43;3.50;;;3.20;;
11267;SDS011;49397;47.474;9.416;2023-01-01T12:59:19;3.53;;;3.23;;
11267;SDS011;49397;47.474;9.416;2023-01-01T13:01:54;3.60;;;3.20;;
11267;SDS011;49397;47.474;9.416;2023-01-01T13:04:22;4.33;;;3.80;;
11267;SDS011;49397;47.474;9.416;2023-01-01T13:06:49;4.67;;;3.60;;
11267;SDS011;49397;47.474;9.416;2023-01-01T13:09:23;4.40;;;3.47;;
11267;SDS011;49397;47.474;9.416;2023-01-01T13:11:54;4.40;;;3.43;;
11267;SDS011;49397;47.474;9.416;2023-01-01T13:14:23;5.47;;;3.33;;
11267;SDS011;49397;47.474;9.416;2023-01-01T13:16:50;4.50;;;3.43;;
11267;SDS011;49397;47.474;9.416;2023-01-01T13:19:24;4.80;;;3.53;;
11267;SDS011;49397;47.474;9.416;2023-01-01T13:21:55;3.57;;;3.27;;
11267;SDS011;49397;47.474;9.416;2023-01-01T13:24:21;3.80;;;3.50;;
11267;SDS011;49397;47.474;9.416;2023-01-01T13:26:48;5.60;;;4.30;;
11267;SDS011;49397;47.474;9.416;2023-01-01T13:45:00;2.37;;;2.23;;
11267;SDS011;49397;47.474;9.416;2023-01-01T13:47:36;2.67;;;2.47;;
11267;SDS011;49397;47.474;9.416;2023-01-01T13:50:27;2.83;;;2.20;;
11267;SDS011;49397;47.474;9.416;2023-01-01T14:04:33;2.67;;;2.47;;
11267;SDS011;49397;47.474;9.416;2023-01-01T14:07:02;4.47;;;2.20;;
11267;SDS011;49397;47.474;9.416;2023-01-01T14:09:34;4.47;;;2.43;;
11267;SDS011;49397;47.474;9.416;2023-01-01T14:12:07;4.43;;;3.33;;
11267;SDS011;49397;47.474;9.416;2023-01-01T14:14:34;4.80;;;3.43;;
11267;SDS011;49397;47.474;9.416;2023-01-01T14:17:00;4.50;;;3.47;;
11267;SDS011;49397;47.474;9.416;2023-01-01T14:19:30;3.90;;;3.50;;
11267;SDS011;49397;47.474;9.416;2023-01-01T14:21:56;3.97;;;3.57;;
11267;SDS011;49397;47.474;9.416;2023-01-01T14:24:23;5.80;;;4.73;;
11267;SDS011;49397;47.474;9.416;2023-01-01T14:26:50;4.83;;;4.30;;
11267;SDS011;49397;47.474;9.416;2023-01-01T14:29:24;4.63;;;4.23;;
11267;SDS011;49397;47.474;9.416;2023-01-01T14:31:53;5.17;;;4.57;;
11267;SDS011;49397;47.474;9.416;2023-01-01T14:34:26;4.87;;;4.00;;
11267;SDS011;49397;47.474;9.416;2023-01-01T14:36:54;7.77;;;4.53;;
11267;SDS011;49397;47.474;9.416;2023-01-01T14:39:27;6.80;;;4.77;;
11267;SDS011;49397;47.474;9.416;2023-01-01T14:42:07;8.80;;;6.23;;
11267;SDS011;49397;47.474;9.416;2023-01-01T14:44:44;11.13;;;5.73;;
11267;SDS011;49397;47.474;9.416;2023-01-01T14:47:23;6.90;;;4.90;;
11267;SDS011;49397;47.474;9.416;2023-01-01T14:49:51;7.13;;;4.60;;
11267;SDS011;49397;47.474;9.416;2023-01-01T14:52:26;6.97;;;4.40;;
11267;SDS011;49397;47.474;9.416;2023-01-01T14:54:55;6.10;;;4.50;;
11267;SDS011;49397;47.474;9.416;2023-01-01T14:57:24;3.20;;;2.90;;
11267;SDS011;49397;47.474;9.416;2023-01-01T14:59:53;3.33;;;3.03;;
11267;SDS011;49397;47.474;9.416;2023-01-01T15:02:24;3.30;;;2.80;;
11267;SDS011;49397;47.474;9.416;2023-01-01T15:04:52;9.70;;;4.90;;
11267;SDS011;49397;47.474;9.416;2023-01-01T15:07:19;4.90;;;4.37;;
11267;SDS011;49397;47.474;9.416;2023-01-01T15:09:47;5.53;;;4.00;;
11267;SDS011;49397;47.474;9.416;2023-01-01T15:12:13;4.23;;;2.50;;
11267;SDS011;49397;47.474;9.416;2023-01-01T15:14:42;4.37;;;3.40;;
11267;SDS011;49397;47.474;9.416;2023-01-01T15:17:13;5.70;;;4.20;;
11267;SDS011;49397;47.474;9.416;2023-01-01T15:19:41;3.60;;;3.23;;
11267;SDS011;49397;47.474;9.416;2023-01-01T15:22:09;4.47;;;3.57;;
11267;SDS011;49397;47.474;9.416;2023-01-01T15:24:43;6.33;;;4.53;;
11267;SDS011;49397;47.474;9.416;2023-01-01T15:27:15;7.50;;;4.00;;
11267;SDS011;49397;47.474;9.416;2023-01-01T15:29:52;4.57;;;3.90;;
11267;SDS011;49397;47.474;9.416;2023-01-01T15:32:34;4.83;;;3.23;;
11267;SDS011;49397;47.474;9.416;2023-01-01T15:35:06;5.53;;;3.80;;
11267;SDS011;49397;47.474;9.416;2023-01-01T15:37:46;5.20;;;3.53;;
11267;SDS011;49397;47.474;9.416;2023-01-01T15:42:46;7.10;;;3.70;;
11267;SDS011;49397;47.474;9.416;2023-01-01T15:45:36;5.23;;;3.87;;
11267;SDS011;49397;47.474;9.416;2023-01-01T15:51:14;4.17;;;3.10;;
11267;SDS011;49397;47.474;9.416;2023-01-01T15:55:50;3.93;;;3.10;;
11267;SDS011;49397;47.474;9.416;2023-01-01T15:58:31;4.30;;;3.53;;
11267;SDS011;49397;47.474;9.416;2023-01-01T16:00:59;4.03;;;3.60;;
11267;SDS011;49397;47.474;9.416;2023-01-01T16:03:28;4.73;;;3.63;;
11267;SDS011;49397;47.474;9.416;2023-01-01T16:05:56;4.30;;;3.90;;
11267;SDS011;49397;47.474;9.416;2023-01-01T16:08:22;4.07;;;3.50;;
11267;SDS011;49397;47.474;9.416;2023-01-01T16:10:48;3.90;;;3.57;;
11267;SDS011;49397;47.474;9.416;2023-01-01T16:13:15;6.20;;;4.97;;
11267;SDS011;49397;47.474;9.416;2023-01-01T16:15:47;4.97;;;4.03;;
11267;SDS011;49397;47.474;9.416;2023-01-01T16:18:14;3.53;;;3.20;;
11267;SDS011;49397;47.474;9.416;2023-01-01T16:20:41;4.20;;;3.00;;
11267;SDS011;49397;47.474;9.416;2023-01-01T16:23:08;3.83;;;3.37;;
11267;SDS011;49397;47.474;9.416;2023-01-01T16:25:34;3.73;;;3.30;;
11267;SDS011;49397;47.474;9.416;2023-01-01T16:28:00;4.67;;;3.53;;
11267;SDS011;49397;47.474;9.416;2023-01-01T16:30:25;3.50;;;3.20;;
11267;SDS011;49397;47.474;9.416;2023-01-01T16:32:51;4.67;;;3.83;;
11267;SDS011;49397;47.474;9.416;2023-01-01T16:35:16;13.23;;;3.43;;
11267;SDS011;49397;47.474;9.416;2023-01-01T16:37:42;4.07;;;3.67;;
11267;SDS011;49397;47.474;9.416;2023-01-01T16:40:07;3.77;;;3.47;;
11267;SDS011;49397;47.474;9.416;2023-01-01T16:42:33;7.37;;;4.30;;
11267;SDS011;49397;47.474;9.416;2023-01-01T16:44:59;5.23;;;3.63;;
11267;SDS011;49397;47.474;9.416;2023-01-01T16:47:24;4.13;;;3.40;;
11267;SDS011;49397;47.474;9.416;2023-01-01T16:49:50;4.97;;;3.13;;
11267;SDS011;49397;47.474;9.416;2023-01-01T16:52:15;4.37;;;3.60;;
11267;SDS011;49397;47.474;9.416;2023-01-01T16:54:41;3.83;;;3.50;;
11267;SDS011;49397;47.474;9.416;2023-01-01T16:57:06;4.07;;;3.73;;
11267;SDS011;49397;47.474;9.416;2023-01-01T16:59:32;3.90;;;3.47;;
11267;SDS011;49397;47.474;9.416;2023-01-01T17:01:57;5.60;;;3.90;;
11267;SDS011;49397;47.474;9.416;2023-01-01T17:04:23;4.30;;;3.73;;
11267;SDS011;49397;47.474;9.416;2023-01-01T17:06:48;4.93;;;3.90;;